Time;durP1;ratioP1;P1;durP2;ratioP2;P2;SDS_P1;SDS_P2;PMS_P1;PMS_P2;Temp;Humidity;BMP_temperature;BMP_pressure;BME280_temperature;BME280_humidity;BME280_pressure;Samples;Min_cycle;Max_cycle;Signal;HPM_P1;HPM_P2
2023/04/13 00:02:05;;;;;;;;;;;;;;;;;;4976352;28;19928;-92
2023/04/13 00:04:32;;;;;;;;;;;;;;;;;;4975445;28;19921;-93
2023/04/13 00:07:01;;;;;;;;;;;;;;;;;;4975464;28;19922;-93
2023/04/13 00:09:30;;;;;;;;;;;;;;;;;;4975561;28;19922;-92
2023/04/13 00:12:00;;;;;;;;;;;;;;;;;;4975372;28;19930;-93
2023/04/13 00:14:26;;;;;;;;;;;;;;;;;;4975466;28;20012;-92
2023/04/13 00:16:52;;;;;;;;;;;;;;;;;;4975433;28;19929;-92
2023/04/13 00:19:18;;;;;;;;;;;;;;;;;;4975642;28;19921;-92
2023/04/13 00:21:45;;;;;;;;;;;;;;;;;;4975525;28;20021;-93
2023/04/13 00:24:11;;;;;;;;;;;;;;;;;;4975388;28;20392;-92
2023/04/13 00:26:37;;;;;;;;;;;;;;;;;;4975324;28;19926;-93
2023/04/13 00:29:03;;;;;;;;;;;;;;;;;;4975732;28;19984;-93
2023/04/13 00:31:29;;;;;;;;;;;;;;;;;;4976760;28;20378;-93
2023/04/13 00:33:55;;;;;;;;;;;;;;;;;;4994912;28;20388;-93
2023/04/13 00:36:23;;;;;;;;;;;;;;;;;;4997854;28;19960;-93
2023/04/13 00:38:49;;;;;;;;;;;;;;;;;;4998734;28;19929;-92
2023/04/13 00:41:15;;;;;;;;;;;;;;;;;;4998764;28;19921;-92
2023/04/13 00:43:41;;;;;;;;;;;;;;;;;;4998411;28;19921;-93
2023/04/13 00:46:07;;;;;;;;;;;;;;;;;;4998980;28;19975;-93
2023/04/13 00:48:36;;;;;;;;;;;;;;;;;;4998501;28;19994;-92
2023/04/13 00:51:02;;;;;;;;;;;;;;;;;;4998504;28;20081;-93
2023/04/13 00:53:28;;;;;;;;;;;;;;;;;;4998519;28;19932;-93
2023/04/13 00:55:54;;;;;;;;;;;;;;;;;;4998633;28;19925;-92
2023/04/13 00:58:20;;;;;;;;;;;;;;;;;;4998257;28;19922;-92
2023/04/13 01:00:46;;;;;;;;;;;;;;;;;;4998685;28;19969;-92
2023/04/13 01:03:12;;;;;;;;;;;;;;;;;;4998419;28;20415;-92
2023/04/13 01:05:38;;;;;;;;;;;;;;;;;;4998591;28;19922;-92
2023/04/13 01:08:07;;;;;;;;;;;;;;;;;;4998535;28;19921;-93
2023/04/13 01:10:34;;;;;;;;;;;;;;;;;;4998026;28;19922;-92
2023/04/13 01:13:00;;;;;;;;;;;;;;;;;;4998615;28;19932;-92
2023/04/13 01:15:26;;;;;;;;;;;;;;;;;;4998029;28;19925;-92
2023/04/13 01:17:52;;;;;;;;;;;;;;;;;;4999000;28;20373;-94
2023/04/13 01:20:19;;;;;;;;;;;;;;;;;;4999221;28;19940;-93
2023/04/13 01:22:45;;;;;;;;;;;;;;;;;;4998533;28;20015;-93
2023/04/13 01:25:11;;;;;;;;;;;;;;;;;;4998355;28;20450;-93
2023/04/13 01:27:41;;;;;;;;;;;;;;;;;;4998212;28;19921;-93
2023/04/13 01:30:09;;;;;;;;;;;;;;;;;;4997681;28;19926;-92
2023/04/13 01:32:35;;;;;;;;;;;;;;;;;;4987065;28;19932;-92
2023/04/13 01:35:01;;;;;;;;;;;;;;;;;;4978530;28;19922;-92
2023/04/13 01:37:28;;;;;;;;;;;;;;;;;;4978107;28;19926;-92
2023/04/13 01:39:54;;;;;;;;;;;;;;;;;;4978189;28;19922;-91
2023/04/13 01:42:20;;;;;;;;;;;;;;;;;;4978111;28;19969;-91
2023/04/13 01:44:46;;;;;;;;;;;;;;;;;;4978273;28;19980;-92
2023/04/13 01:47:15;;;;;;;;;;;;;;;;;;4977171;28;20289;-91
2023/04/13 01:49:41;;;;;;;;;;;;;;;;;;4978149;28;19922;-91
2023/04/13 01:52:07;;;;;;;;;;;;;;;;;;4977993;28;19934;-92
2023/04/13 01:54:32;;;;;;;;;;;;;;;;;;4977917;28;19922;-92
2023/04/13 01:56:58;;;;;;;;;;;;;;;;;;4977928;28;19929;-91
2023/04/13 01:59:24;;;;;;;;;;;;;;;;;;4978216;28;19922;-92
2023/04/13 02:01:50;;;;;;;;;;;;;;;;;;4977939;28;19929;-92
2023/04/13 02:04:16;;;;;;;;;;;;;;;;;;4977799;28;19933;-92
2023/04/13 02:06:42;;;;;;;;;;;;;;;;;;4977592;28;19922;-91
2023/04/13 02:09:08;;;;;;;;;;;;;;;;;;4977818;28;19922;-91
2023/04/13 02:11:35;;;;;;;;;;;;;;;;;;4977595;28;20024;-91
2023/04/13 02:14:01;;;;;;;;;;;;;;;;;;4977937;28;20288;-91
2023/04/13 02:16:27;;;;;;;;;;;;;;;;;;4994353;28;19925;-92
2023/04/13 02:18:53;;;;;;;;;;;;;;;;;;4978143;28;19921;-92
2023/04/13 02:21:19;;;;;;;;;;;;;;;;;;4977334;28;19960;-90
2023/04/13 02:23:44;;;;;;;;;;;;;;;;;;4977476;28;19969;-90
2023/04/13 02:26:11;;;;;;;;;;;;;;;;;;4977311;28;20017;-90
2023/04/13 02:28:37;;;;;;;;;;;;;;;;;;4977319;28;19922;-90
2023/04/13 02:31:04;;;;;;;;;;;;;;;;;;4977122;28;19933;-91
2023/04/13 02:33:31;;;;;;;;;;;;;;;;;;4994926;28;19987;-90
2023/04/13 02:35:57;;;;;;;;;;;;;;;;;;4980347;28;19979;-91
2023/04/13 02:38:24;;;;;;;;;;;;;;;;;;4980522;28;20008;-91
2023/04/13 02:40:50;;;;;;;;;;;;;;;;;;4980832;28;20308;-91
2023/04/13 02:43:16;;;;;;;;;;;;;;;;;;4996863;28;20032;-91
2023/04/13 02:45:42;;;;;;;;;;;;;;;;;;4996505;28;19927;-91
2023/04/13 02:48:11;;;;;;;;;;;;;;;;;;4980129;28;20004;-91
2023/04/13 02:50:37;;;;;;;;;;;;;;;;;;4980390;28;20306;-91
2023/04/13 02:53:03;;;;;;;;;;;;;;;;;;4980469;28;20005;-91
2023/04/13 02:55:29;;;;;;;;;;;;;;;;;;4980003;28;20009;-91
2023/04/13 02:57:56;;;;;;;;;;;;;;;;;;4979764;28;20012;-91
2023/04/13 03:00:24;;;;;;;;;;;;;;;;;;4980091;28;19921;-90
2023/04/13 03:02:50;;;;;;;;;;;;;;;;;;4980081;28;20317;-90
2023/04/13 03:05:16;;;;;;;;;;;;;;;;;;4979805;28;19948;-91
2023/04/13 03:07:42;;;;;;;;;;;;;;;;;;4979759;28;19960;-91
2023/04/13 03:10:09;;;;;;;;;;;;;;;;;;4980147;28;19972;-93
2023/04/13 03:12:35;;;;;;;;;;;;;;;;;;4980350;28;20384;-94
2023/04/13 03:15:06;;;;;;;;;;;;;;;;;;4980508;28;19921;-93
2023/04/13 03:17:32;;;;;;;;;;;;;;;;;;4980346;28;19922;-95
2023/04/13 03:19:58;;;;;;;;;;;;;;;;;;4980409;28;20027;-93
2023/04/13 03:22:24;;;;;;;;;;;;;;;;;;4980327;28;20411;-93
2023/04/13 03:24:51;;;;;;;;;;;;;;;;;;4996424;28;19943;-93
2023/04/13 03:27:21;;;;;;;;;;;;;;;;;;4996271;28;19921;-93
2023/04/13 03:29:47;;;;;;;;;;;;;;;;;;4980396;28;20024;-93
2023/04/13 03:32:13;;;;;;;;;;;;;;;;;;4976623;28;19977;-94
2023/04/13 03:34:42;;;;;;;;;;;;;;;;;;4977183;28;19976;-93
2023/04/13 03:37:09;;;;;;;;;;;;;;;;;;4976684;28;20008;-93
2023/04/13 03:39:35;;;;;;;;;;;;;;;;;;4976683;28;19972;-93
2023/04/13 03:42:02;;;;;;;;;;;;;;;;;;4975960;28;19957;-93
2023/04/13 03:44:28;;;;;;;;;;;;;;;;;;4977642;28;19922;-94
2023/04/13 03:46:54;;;;;;;;;;;;;;;;;;4976169;28;20053;-93
2023/04/13 03:49:20;;;;;;;;;;;;;;;;;;4992567;28;19922;-93
2023/04/13 03:51:46;;;;;;;;;;;;;;;;;;4976122;28;19944;-93
2023/04/13 03:54:12;;;;;;;;;;;;;;;;;;4976318;28;20329;-92
2023/04/13 03:56:38;;;;;;;;;;;;;;;;;;4975729;28;19929;-93
2023/04/13 03:59:07;;;;;;;;;;;;;;;;;;4992235;28;19932;-93
2023/04/13 04:01:36;;;;;;;;;;;;;;;;;;4976030;28;19922;-89
2023/04/13 04:04:01;;;;;;;;;;;;;;;;;;4975938;28;20040;-91
2023/04/13 04:06:27;;;;;;;;;;;;;;;;;;4975733;28;19921;-90
2023/04/13 04:08:53;;;;;;;;;;;;;;;;;;4975704;28;19952;-91
2023/04/13 04:11:21;;;;;;;;;;;;;;;;;;4991180;28;20369;-90
2023/04/13 04:13:47;;;;;;;;;;;;;;;;;;4975341;28;19933;-90
2023/04/13 04:16:13;;;;;;;;;;;;;;;;;;4975597;28;19928;-90
2023/04/13 04:18:38;;;;;;;;;;;;;;;;;;4975277;28;20288;-89
2023/04/13 04:21:05;;;;;;;;;;;;;;;;;;4975529;28;19922;-89
2023/04/13 04:23:33;;;;;;;;;;;;;;;;;;4991460;28;20016;-90
2023/04/13 04:26:01;;;;;;;;;;;;;;;;;;4975656;28;20285;-90
2023/04/13 04:28:29;;;;;;;;;;;;;;;;;;4975138;28;19922;-89
2023/04/13 04:30:55;;;;;;;;;;;;;;;;;;4975309;28;20032;-89
2023/04/13 04:33:24;;;;;;;;;;;;;;;;;;4975280;28;20001;-89
2023/04/13 04:35:50;;;;;;;;;;;;;;;;;;4975374;28;20017;-90
2023/04/13 04:38:16;;;;;;;;;;;;;;;;;;4975175;28;19926;-90
2023/04/13 04:40:44;;;;;;;;;;;;;;;;;;4975012;28;19928;-90
2023/04/13 04:43:11;;;;;;;;;;;;;;;;;;4975105;28;19970;-90
2023/04/13 04:45:37;;;;;;;;;;;;;;;;;;4975261;28;20333;-90
2023/04/13 04:48:04;;;;;;;;;;;;;;;;;;4975475;28;20016;-89
2023/04/13 04:50:30;;;;;;;;;;;;;;;;;;4975277;28;19968;-90
2023/04/13 04:52:56;;;;;;;;;;;;;;;;;;4975111;28;19922;-89
2023/04/13 04:55:22;;;;;;;;;;;;;;;;;;4975266;28;19928;-89
2023/04/13 04:57:48;;;;;;;;;;;;;;;;;;4975113;28;19925;-89
2023/04/13 05:00:14;;;;;;;;;;;;;;;;;;4975067;28;19975;-89
2023/04/13 05:02:40;;;;;;;;;;;;;;;;;;4975099;28;19922;-90
2023/04/13 05:05:06;;;;;;;;;;;;;;;;;;4975176;28;20395;-89
2023/04/13 05:07:32;;;;;;;;;;;;;;;;;;4975118;28;19962;-89
2023/04/13 05:09:58;;;;;;;;;;;;;;;;;;4991072;28;20045;-91
2023/04/13 05:12:24;;;;;;;;;;;;;;;;;;4991525;28;19992;-91
2023/04/13 05:14:50;;;;;;;;;;;;;;;;;;4975742;28;19929;-91
2023/04/13 05:17:19;;;;;;;;;;;;;;;;;;4975120;28;19928;-91
2023/04/13 05:19:45;;;;;;;;;;;;;;;;;;4974768;28;19929;-91
2023/04/13 05:22:11;;;;;;;;;;;;;;;;;;4977699;28;19964;-92
2023/04/13 05:24:37;;;;;;;;;;;;;;;;;;4978722;28;19922;-91
2023/04/13 05:27:03;;;;;;;;;;;;;;;;;;4978484;28;19922;-91
2023/04/13 05:29:29;;;;;;;;;;;;;;;;;;4978745;28;19921;-92
2023/04/13 05:31:55;;;;;;;;;;;;;;;;;;4978347;28;19981;-91
2023/04/13 05:34:21;;;;;;;;;;;;;;;;;;4978346;28;19922;-91
2023/04/13 05:36:49;;;;;;;;;;;;;;;;;;4978391;28;19926;-90
2023/04/13 05:39:15;;;;;;;;;;;;;;;;;;4978680;28;20242;-91
2023/04/13 05:41:40;;;;;;;;;;;;;;;;;;4978392;28;19937;-91
2023/04/13 05:44:07;;;;;;;;;;;;;;;;;;4978447;28;19926;-90
2023/04/13 05:46:32;;;;;;;;;;;;;;;;;;4977625;28;20353;-90
2023/04/13 05:49:00;;;;;;;;;;;;;;;;;;4977906;28;19932;-91
2023/04/13 05:51:29;;;;;;;;;;;;;;;;;;4977495;28;20383;-90
2023/04/13 05:53:55;;;;;;;;;;;;;;;;;;4977852;28;19928;-90
2023/04/13 05:56:22;;;;;;;;;;;;;;;;;;4993773;28;19921;-90
2023/04/13 05:58:48;;;;;;;;;;;;;;;;;;4977899;28;19922;-90
2023/04/13 06:01:15;;;;;;;;;;;;;;;;;;4994388;28;19928;-91
2023/04/13 06:03:42;;;;;;;;;;;;;;;;;;4978009;28;20350;-90
2023/04/13 06:06:09;;;;;;;;;;;;;;;;;;4977825;28;19922;-91
2023/04/13 06:08:35;;;;;;;;;;;;;;;;;;4977288;28;19922;-90
2023/04/13 06:11:01;;;;;;;;;;;;;;;;;;4977841;28;20262;-90
2023/04/13 06:13:27;;;;;;;;;;;;;;;;;;4993643;28;19991;-90
2023/04/13 06:15:53;;;;;;;;;;;;;;;;;;4977301;28;20421;-90
2023/04/13 06:18:19;;;;;;;;;;;;;;;;;;4977640;28;20045;-90
2023/04/13 06:20:45;;;;;;;;;;;;;;;;;;4993157;28;19972;-90
2023/04/13 06:23:11;;;;;;;;;;;;;;;;;;4993160;28;19922;-90
2023/04/13 06:25:40;;;;;;;;;;;;;;;;;;4977588;28;20297;-90
2023/04/13 06:28:06;;;;;;;;;;;;;;;;;;4993467;28;20181;-91
2023/04/13 06:30:32;;;;;;;;;;;;;;;;;;4977023;28;20129;-91
2023/04/13 06:32:58;;;;;;;;;;;;;;;;;;4976288;28;19926;-91
2023/04/13 06:35:24;;;;;;;;;;;;;;;;;;4975309;28;19926;-91
2023/04/13 06:37:50;;;;;;;;;;;;;;;;;;4976787;28;19932;-92
2023/04/13 06:40:16;;;;;;;;;;;;;;;;;;4976955;28;20289;-91
2023/04/13 06:42:42;;;;;;;;;;;;;;;;;;4976500;28;19926;-92
2023/04/13 06:45:08;;;;;;;;;;;;;;;;;;4976675;28;19967;-93
2023/04/13 06:47:34;;;;;;;;;;;;;;;;;;4976872;28;19967;-92
2023/04/13 06:50:00;;;;;;;;;;;;;;;;;;4977134;28;19928;-92
2023/04/13 06:52:30;;;;;;;;;;;;;;;;;;4977316;28;19926;-93
2023/04/13 06:54:56;;;;;;;;;;;;;;;;;;4977531;28;20029;-93
2023/04/13 06:57:22;;;;;;;;;;;;;;;;;;4977198;28;20368;-93
2023/04/13 06:59:48;;;;;;;;;;;;;;;;;;4976529;28;20325;-93
2023/04/13 07:02:18;;;;;;;;;;;;;;;;;;4977484;28;19933;-95
2023/04/13 07:04:45;;;;;;;;;;;;;;;;;;4993522;28;19928;-93
2023/04/13 07:07:11;;;;;;;;;;;;;;;;;;4977109;28;19921;-92
2023/04/13 07:09:37;;;;;;;;;;;;;;;;;;4976564;28;19971;-90
2023/04/13 07:12:03;;;;;;;;;;;;;;;;;;4976312;28;19952;-91
2023/04/13 07:14:29;;;;;;;;;;;;;;;;;;4976589;28;19921;-91
2023/04/13 07:16:55;;;;;;;;;;;;;;;;;;4976136;28;19941;-93
2023/04/13 07:19:22;;;;;;;;;;;;;;;;;;4975774;28;19937;-93
2023/04/13 07:21:49;;;;;;;;;;;;;;;;;;4991678;28;20360;-93
2023/04/13 07:24:15;;;;;;;;;;;;;;;;;;4976730;28;19921;-94
2023/04/13 07:26:41;;;;;;;;;;;;;;;;;;4976074;28;19922;-94
2023/04/13 07:29:12;;;;;;;;;;;;;;;;;;4992536;28;19985;-93
2023/04/13 07:31:38;;;;;;;;;;;;;;;;;;4978970;28;19936;-93
2023/04/13 07:34:04;;;;;;;;;;;;;;;;;;4979518;28;20039;-94
2023/04/13 07:36:30;;;;;;;;;;;;;;;;;;4979858;28;19929;-95
2023/04/13 07:38:56;;;;;;;;;;;;;;;;;;4979736;28;19925;-93
2023/04/13 07:41:23;;;;;;;;;;;;;;;;;;4979898;28;19922;-93
2023/04/13 07:43:49;;;;;;;;;;;;;;;;;;4995437;28;19921;-93
2023/04/13 07:46:19;;;;;;;;;;;;;;;;;;4995644;28;20067;-93
2023/04/13 07:48:45;;;;;;;;;;;;;;;;;;4979942;28;19921;-94
2023/04/13 07:51:11;;;;;;;;;;;;;;;;;;4979879;28;19933;-94
2023/04/13 07:53:37;;;;;;;;;;;;;;;;;;4996104;28;19921;-95
2023/04/13 07:56:03;;;;;;;;;;;;;;;;;;4980928;28;19984;-95
2023/04/13 07:58:29;;;;;;;;;;;;;;;;;;4979954;28;19929;-96
2023/04/13 08:00:55;;;;;;;;;;;;;;;;;;4979674;28;19929;-96
2023/04/13 08:03:21;;;;;;;;;;;;;;;;;;4979353;28;20019;-94
2023/04/13 08:05:48;;;;;;;;;;;;;;;;;;4978972;28;20044;-95
2023/04/13 08:08:15;;;;;;;;;;;;;;;;;;4979550;28;19929;-94
2023/04/13 08:10:41;;;;;;;;;;;;;;;;;;4979213;28;19960;-94
2023/04/13 08:13:08;;;;;;;;;;;;;;;;;;4994989;28;19939;-95
2023/04/13 08:15:33;;;;;;;;;;;;;;;;;;4979122;28;20004;-95
2023/04/13 08:18:00;;;;;;;;;;;;;;;;;;4979348;28;19922;-94
2023/04/13 08:20:25;;;;;;;;;;;;;;;;;;4979096;28;19921;-94
2023/04/13 08:22:54;;;;;;;;;;;;;;;;;;4979944;28;20515;-96
2023/04/13 08:25:20;;;;;;;;;;;;;;;;;;4980544;28;19921;-95
2023/04/13 08:27:46;;;;;;;;;;;;;;;;;;4994902;28;19948;-95
2023/04/13 08:30:13;;;;;;;;;;;;;;;;;;4978942;28;19921;-94
2023/04/13 08:32:39;;;;;;;;;;;;;;;;;;4975597;28;19979;-93
2023/04/13 08:35:06;;;;;;;;;;;;;;;;;;4975812;28;19929;-93
2023/04/13 08:37:39;;;;;;;;;;;;;;;;;;4991926;28;19933;-94
2023/04/13 08:40:06;;;;;;;;;;;;;;;;;;4976470;28;20381;-92
2023/04/13 08:42:32;;;;;;;;;;;;;;;;;;4992584;28;20159;-93
2023/04/13 08:44:58;;;;;;;;;;;;;;;;;;4975310;28;20409;-92
2023/04/13 08:47:24;;;;;;;;;;;;;;;;;;4975482;28;20214;-90
2023/04/13 08:49:50;;;;;;;;;;;;;;;;;;4975564;28;19929;-93
2023/04/13 08:52:16;;;;;;;;;;;;;;;;;;4991344;28;19929;-91
2023/04/13 08:54:43;;;;;;;;;;;;;;;;;;4991575;28;20013;-93
2023/04/13 08:57:09;;;;;;;;;;;;;;;;;;4978379;28;19928;-93
2023/04/13 08:59:36;;;;;;;;;;;;;;;;;;4979655;28;19988;-93
2023/04/13 09:02:06;;;;;;;;;;;;;;;;;;4982281;28;19972;-96
2023/04/13 09:04:39;;;;;;;;;;;;;;;;;;4995674;28;19922;-96
2023/04/13 09:07:07;;;;;;;;;;;;;;;;;;4979922;28;19933;-95
2023/04/13 09:09:33;;;;;;;;;;;;;;;;;;4980518;28;20016;-96
2023/04/13 09:12:02;;;;;;;;;;;;;;;;;;4979819;28;20364;-96
2023/04/13 09:14:28;;;;;;;;;;;;;;;;;;4980293;28;19922;-96
2023/04/13 09:16:59;;;;;;;;;;;;;;;;;;4979945;28;19928;-96
2023/04/13 09:19:25;;;;;;;;;;;;;;;;;;4979677;28;19929;-95
2023/04/13 09:24:40;;;;;;;;;;;;;;;;;;5000629;28;19976;-92
2023/04/13 09:27:06;;;;;;;;;;;;;;;;;;4973990;28;19921;-93
2023/04/13 09:29:32;;;;;;;;;;;;;;;;;;4994755;28;20344;-91
2023/04/13 09:32:02;;;;;;;;;;;;;;;;;;4979094;28;20332;-91
2023/04/13 09:34:28;;;;;;;;;;;;;;;;;;4994795;28;19929;-89
2023/04/13 09:36:53;;;;;;;;;;;;;;;;;;4978103;28;20296;-93
2023/04/13 09:39:19;;;;;;;;;;;;;;;;;;4978343;28;19925;-92
2023/04/13 09:41:49;;;;;;;;;;;;;;;;;;4994337;28;20388;-92
2023/04/13 09:44:23;;;;;;;;;;;;;;;;;;4977932;28;19926;-93
2023/04/13 09:46:49;;;;;;;;;;;;;;;;;;4978315;28;19922;-93
2023/04/13 09:49:15;;;;;;;;;;;;;;;;;;4994222;28;20020;-92
2023/04/13 09:51:41;;;;;;;;;;;;;;;;;;4979280;28;20012;-90
2023/04/13 09:54:07;;;;;;;;;;;;;;;;;;4977760;28;19925;-91
2023/04/13 09:56:33;;;;;;;;;;;;;;;;;;4977865;28;19976;-92
2023/04/13 09:58:59;;;;;;;;;;;;;;;;;;4977825;28;19925;-92
2023/04/13 10:01:25;;;;;;;;;;;;;;;;;;4978229;28;19922;-93
2023/04/13 10:03:51;;;;;;;;;;;;;;;;;;4978150;28;20204;-90
2023/04/13 10:06:16;;;;;;;;;;;;;;;;;;4994320;28;19922;-91
2023/04/13 10:08:45;;;;;;;;;;;;;;;;;;4992818;28;19922;-90
2023/04/13 10:11:11;;;;;;;;;;;;;;;;;;4977410;28;19980;-90
2023/04/13 10:13:38;;;;;;;;;;;;;;;;;;4993930;28;20316;-91
2023/04/13 10:16:04;;;;;;;;;;;;;;;;;;4977202;28;19922;-92
2023/04/13 10:18:31;;;;;;;;;;;;;;;;;;4977664;28;19921;-92
2023/04/13 10:20:57;;;;;;;;;;;;;;;;;;4977426;28;19925;-90
2023/04/13 10:23:23;;;;;;;;;;;;;;;;;;4977248;28;20031;-90
2023/04/13 10:25:49;;;;;;;;;;;;;;;;;;4977267;28;19922;-90
2023/04/13 10:28:16;;;;;;;;;;;;;;;;;;4993162;28;20008;-91
2023/04/13 10:30:42;;;;;;;;;;;;;;;;;;4977046;28;19929;-91
2023/04/13 10:33:08;;;;;;;;;;;;;;;;;;4976750;28;19925;-91
2023/04/13 10:35:36;;;;;;;;;;;;;;;;;;4977018;28;19926;-91
2023/04/13 10:38:01;;;;;;;;;;;;;;;;;;4977449;28;19928;-91
2023/04/13 10:40:27;;;;;;;;;;;;;;;;;;4993364;28;19949;-92
2023/04/13 10:42:53;;;;;;;;;;;;;;;;;;4993767;28;20347;-93
2023/04/13 10:45:20;;;;;;;;;;;;;;;;;;4977086;28;19941;-91
2023/04/13 10:47:46;;;;;;;;;;;;;;;;;;4993776;28;19922;-92
2023/04/13 10:50:12;;;;;;;;;;;;;;;;;;4977408;28;19921;-93
2023/04/13 10:52:38;;;;;;;;;;;;;;;;;;4976988;28;19973;-95
2023/04/13 10:55:04;;;;;;;;;;;;;;;;;;4993630;28;20395;-96
2023/04/13 10:57:30;;;;;;;;;;;;;;;;;;4977330;28;19922;-95
2023/04/13 10:59:56;;;;;;;;;;;;;;;;;;4977567;28;19988;-96
2023/04/13 11:02:22;;;;;;;;;;;;;;;;;;4977662;28;20200;-94
2023/04/13 11:04:48;;;;;;;;;;;;;;;;;;4978454;28;19929;-93
2023/04/13 11:07:15;;;;;;;;;;;;;;;;;;4992913;28;19928;-92
2023/04/13 11:09:40;;;;;;;;;;;;;;;;;;4976861;28;19922;-92
2023/04/13 11:12:09;;;;;;;;;;;;;;;;;;4976108;28;19937;-90
2023/04/13 11:14:37;;;;;;;;;;;;;;;;;;4977540;28;20389;-96
2023/04/13 11:17:07;;;;;;;;;;;;;;;;;;4994810;28;20435;-96
2023/04/13 11:19:33;;;;;;;;;;;;;;;;;;4977805;28;19922;-95
2023/04/13 11:22:00;;;;;;;;;;;;;;;;;;4976623;28;19922;-96
2023/04/13 11:24:26;;;;;;;;;;;;;;;;;;4977200;28;20405;-96
2023/04/13 11:26:54;;;;;;;;;;;;;;;;;;4977525;28;20168;-96
2023/04/13 11:29:21;;;;;;;;;;;;;;;;;;4977141;28;19922;-95
2023/04/13 11:31:48;;;;;;;;;;;;;;;;;;4983324;28;19930;-96
2023/04/13 11:34:17;;;;;;;;;;;;;;;;;;4982086;28;20341;-96
2023/04/13 11:36:47;;;;;;;;;;;;;;;;;;4980451;28;19922;-90
2023/04/13 11:39:13;;;;;;;;;;;;;;;;;;4979822;28;19927;-93
2023/04/13 11:41:39;;;;;;;;;;;;;;;;;;4979526;28;19921;-93
2023/04/13 11:44:05;;;;;;;;;;;;;;;;;;4979749;28;19929;-94
2023/04/13 11:46:31;;;;;;;;;;;;;;;;;;4978966;28;19921;-93
2023/04/13 11:49:00;;;;;;;;;;;;;;;;;;4995918;28;19922;-94
2023/04/13 11:51:26;;;;;;;;;;;;;;;;;;4978971;28;19937;-93
2023/04/13 11:53:58;;;;;;;;;;;;;;;;;;4980671;28;19928;-95
2023/04/13 11:56:35;;;;;;;;;;;;;;;;;;4997887;28;19926;-96
2023/04/13 11:59:35;;;;;;;;;;;;;;;;;;4971817;28;19921;-96
2023/04/13 12:02:08;;;;;;;;;;;;;;;;;;4982125;28;19983;-95
2023/04/13 12:04:47;;;;;;;;;;;;;;;;;;;;;
2023/04/13 12:20:34;;;;;;;;;;;;;;;;;;5117514;23;20586;-96
2023/04/13 12:33:17;;;;;;;;;;;;;;;;;;5364323;23;19936;-90
2023/04/13 12:35:43;;;;;;;;;;;;;;;;;;4995292;28;19922;-90
2023/04/13 12:38:08;;;;;;;;;;;;;;;;;;4995869;28;19926;-90
2023/04/13 12:40:34;;;;;;;;;;;;;;;;;;4995854;28;20358;-91
2023/04/13 12:43:03;;;;;;;;;;;;;;;;;;4980672;28;19921;-91
2023/04/13 12:45:30;;;;;;;;;;;;;;;;;;4978659;28;19926;-93
2023/04/13 12:47:55;;;;;;;;;;;;;;;;;;4980041;28;19929;-93
2023/04/13 12:50:21;;;;;;;;;;;;;;;;;;4977790;28;19922;-92
2023/04/13 12:52:48;;;;;;;;;;;;;;;;;;4992247;28;20294;-94
2023/04/13 12:55:14;;;;;;;;;;;;;;;;;;4992780;28;20004;-93
2023/04/13 12:57:51;;;;;;;;;;;;;;;;;;4993358;28;20053;-96
2023/04/13 13:00:35;;;;;;;;;;;;;;;;;;4997815;28;19922;-93
2023/04/13 13:03:24;;;;;;;;;;;;;;;;;;4983970;28;19922;-94
2023/04/13 13:05:49;;;;;;;;;;;;;;;;;;4975187;28;20400;-94
2023/04/13 13:08:18;;;;;;;;;;;;;;;;;;4977084;28;19984;-94
2023/04/13 13:10:44;;;;;;;;;;;;;;;;;;4979150;28;19975;-94
2023/04/13 13:13:10;;;;;;;;;;;;;;;;;;4979232;28;19973;-93
2023/04/13 13:15:36;;;;;;;;;;;;;;;;;;4979764;28;19926;-94
2023/04/13 13:18:05;;;;;;;;;;;;;;;;;;4967348;28;19998;-95
2023/04/13 13:20:39;;;;;;;;;;;;;;;;;;4979701;28;19988;-95
2023/04/13 13:23:06;;;;;;;;;;;;;;;;;;4979320;28;19948;-95
2023/04/13 13:25:33;;;;;;;;;;;;;;;;;;4996145;28;20345;-92
2023/04/13 13:28:01;;;;;;;;;;;;;;;;;;4976023;28;20373;-92
2023/04/13 13:30:27;;;;;;;;;;;;;;;;;;4959761;28;19929;-94
2023/04/13 13:32:52;;;;;;;;;;;;;;;;;;4959486;28;20385;-93
2023/04/13 13:35:18;;;;;;;;;;;;;;;;;;4959392;28;20378;-92
2023/04/13 13:37:47;;;;;;;;;;;;;;;;;;4959593;28;19922;-92
2023/04/13 13:40:13;;;;;;;;;;;;;;;;;;4959880;28;20464;-93
2023/04/13 13:42:39;;;;;;;;;;;;;;;;;;4991628;28;19926;-93
2023/04/13 13:45:05;;;;;;;;;;;;;;;;;;4991859;28;19929;-94
2023/04/13 13:47:32;;;;;;;;;;;;;;;;;;4992158;28;19922;-93
2023/04/13 13:49:58;;;;;;;;;;;;;;;;;;4976099;28;19922;-94
2023/04/13 13:52:25;;;;;;;;;;;;;;;;;;4974296;28;19973;-94
2023/04/13 13:54:52;;;;;;;;;;;;;;;;;;4975578;28;19929;-94
2023/04/13 13:57:18;;;;;;;;;;;;;;;;;;4975439;28;19922;-92
2023/04/13 13:59:44;;;;;;;;;;;;;;;;;;4975386;28;19977;-94
2023/04/13 14:02:10;;;;;;;;;;;;;;;;;;4975252;28;20012;-94
2023/04/13 14:04:36;;;;;;;;;;;;;;;;;;4982706;28;19923;-94
2023/04/13 14:07:02;;;;;;;;;;;;;;;;;;4959302;28;19929;-93
2023/04/13 14:09:28;;;;;;;;;;;;;;;;;;4966482;28;19921;-94
2023/04/13 14:11:55;;;;;;;;;;;;;;;;;;4962138;28;20077;-93
2023/04/13 14:14:21;;;;;;;;;;;;;;;;;;4967944;28;19934;-93
2023/04/13 14:16:47;;;;;;;;;;;;;;;;;;4959848;28;20032;-92
2023/04/13 14:19:13;;;;;;;;;;;;;;;;;;4966949;28;19922;-93
2023/04/13 14:21:41;;;;;;;;;;;;;;;;;;4971464;28;19926;-95
2023/04/13 14:24:07;;;;;;;;;;;;;;;;;;4991372;28;19925;-93
2023/04/13 14:26:36;;;;;;;;;;;;;;;;;;4991287;28;19926;-95
2023/04/13 14:29:02;;;;;;;;;;;;;;;;;;4970854;28;19922;-91
2023/04/13 14:31:28;;;;;;;;;;;;;;;;;;4991044;28;19937;-94
2023/04/13 14:33:54;;;;;;;;;;;;;;;;;;4990865;28;19997;-91
2023/04/13 14:36:20;;;;;;;;;;;;;;;;;;5006533;28;19981;-90
2023/04/13 14:38:47;;;;;;;;;;;;;;;;;;5006686;28;19922;-90
2023/04/13 14:41:16;;;;;;;;;;;;;;;;;;4992357;28;19930;-95
2023/04/13 14:43:43;;;;;;;;;;;;;;;;;;4978528;28;19922;-91
2023/04/13 14:46:23;;;;;;;;;;;;;;;;;;5008207;28;19936;-96
2023/04/13 14:48:52;;;;;;;;;;;;;;;;;;4991464;28;20019;-96
2023/04/13 14:51:18;;;;;;;;;;;;;;;;;;4990606;28;19984;-93
2023/04/13 14:58:55;;;;;;;;;;;;;;;;;;5569238;23;19929;-96
2023/04/13 15:42:57;;;;;;;;;;;;;;;;;;5609355;23;19932;-94
2023/04/13 15:45:32;;;;;;;;;;;;;;;;;;4997847;28;19930;-94
2023/04/13 15:47:58;;;;;;;;;;;;;;;;;;4996215;28;19976;-90
2023/04/13 15:50:30;;;;;;;;;;;;;;;;;;5012701;28;19921;-91
2023/04/13 15:56:03;;;;;;;;;;;;;;;;;;5543357;23;19932;-92
2023/04/13 16:12:16;;;;;;;;;;;;;;;;;;5033803;23;19955;-91
2023/04/13 16:14:43;;;;;;;;;;;;;;;;;;4978641;28;19929;-93
2023/04/13 16:31:22;;;;;;;;;;;;;;;;;;5219991;23;19980;-92
2023/04/13 16:33:40;;;;;;;;;;;;;;;;;;4999878;28;19925;-93
2023/04/13 16:47:11;;;;;;;;;;;;;;;;;;5338880;23;19933;-93
2023/04/13 16:52:44;;;;;;;;;;;;;;;;;;5271340;23;19936;-92
2023/04/13 16:55:12;;;;;;;;;;;;;;;;;;4979561;28;20000;-90
2023/04/13 16:57:38;;;;;;;;;;;;;;;;;;4976548;28;19929;-93
2023/04/13 17:00:07;;;;;;;;;;;;;;;;;;4965001;28;19922;-94
2023/04/13 17:02:39;;;;;;;;;;;;;;;;;;4962316;28;19921;-92
2023/04/13 17:05:07;;;;;;;;;;;;;;;;;;4991973;28;20305;-92
2023/04/13 17:07:33;;;;;;;;;;;;;;;;;;4992336;28;20031;-94
2023/04/13 17:09:59;;;;;;;;;;;;;;;;;;4991821;28;20464;-94
2023/04/13 17:12:25;;;;;;;;;;;;;;;;;;5003385;28;19941;-94
2023/04/13 17:14:51;;;;;;;;;;;;;;;;;;4975578;28;19926;-93
2023/04/13 17:17:17;;;;;;;;;;;;;;;;;;4985949;28;19972;-92
2023/04/13 17:19:43;;;;;;;;;;;;;;;;;;4979098;28;19925;-93
2023/04/13 17:22:09;;;;;;;;;;;;;;;;;;4979286;28;19921;-94
2023/04/13 17:24:35;;;;;;;;;;;;;;;;;;4982374;28;19922;-93
2023/04/13 17:27:01;;;;;;;;;;;;;;;;;;4995918;28;20076;-95
2023/04/13 17:29:32;;;;;;;;;;;;;;;;;;4995178;28;20297;-94
2023/04/13 17:31:58;;;;;;;;;;;;;;;;;;4978370;28;19933;-92
2023/04/13 17:34:24;;;;;;;;;;;;;;;;;;4978658;28;19922;-92
2023/04/13 17:36:50;;;;;;;;;;;;;;;;;;4978466;28;19926;-92
2023/04/13 17:50:00;;;;;;;;;;;;;;;;;;5015303;28;19933;-93
2023/04/13 17:55:09;;;;;;;;;;;;;;;;;;5038151;23;19983;-96
2023/04/13 17:57:52;;;;;;;;;;;;;;;;;;4987488;28;20028;-96
2023/04/13 18:00:19;;;;;;;;;;;;;;;;;;4981883;28;19922;-96
2023/04/13 18:05:38;;;;;;;;;;;;;;;;;;4988391;28;20320;-96
2023/04/13 18:08:04;;;;;;;;;;;;;;;;;;4982007;28;19929;-94
2023/04/13 18:18:22;;;;;;;;;;;;;;;;;;5532732;23;19937;-94
2023/04/13 18:20:51;;;;;;;;;;;;;;;;;;4998408;28;19977;-96
2023/04/13 18:23:19;;;;;;;;;;;;;;;;;;5610437;23;20013;-93
2023/04/13 18:25:45;;;;;;;;;;;;;;;;;;5016107;28;19925;-95
2023/04/13 18:28:11;;;;;;;;;;;;;;;;;;4997382;28;19922;-96
2023/04/13 18:30:37;;;;;;;;;;;;;;;;;;4997945;28;20387;-94
2023/04/13 18:35:52;;;;;;;;;;;;;;;;;;5005010;28;19961;-94
2023/04/13 18:41:24;;;;;;;;;;;;;;;;;;4982769;28;19922;-93
2023/04/13 18:43:50;;;;;;;;;;;;;;;;;;5000346;28;20288;-93
2023/04/13 18:51:38;;;;;;;;;;;;;;;;;;5706039;23;19926;-93
2023/04/13 18:54:04;;;;;;;;;;;;;;;;;;5000855;28;19922;-95
2023/04/13 18:59:06;;;;;;;;;;;;;;;;;;5710109;23;20039;-95
2023/04/13 19:01:32;;;;;;;;;;;;;;;;;;4997345;28;19933;-94
2023/04/13 19:15:02;;;;;;;;;;;;;;;;;;5067710;23;19925;-96
2023/04/13 19:17:31;;;;;;;;;;;;;;;;;;5001902;28;19921;-96
2023/04/13 19:20:05;;;;;;;;;;;;;;;;;;5016535;28;19921;-96
2023/04/13 19:22:34;;;;;;;;;;;;;;;;;;5015372;28;19933;-96
2023/04/13 19:25:00;;;;;;;;;;;;;;;;;;5007807;28;19921;-95
2023/04/13 19:27:45;;;;;;;;;;;;;;;;;;5002572;28;19936;-96
2023/04/13 19:30:11;;;;;;;;;;;;;;;;;;4998707;28;20932;-94
2023/04/13 19:32:37;;;;;;;;;;;;;;;;;;4998389;28;20008;-91